Huvudsida
METAR-TAF:

METAR-TAF

Flygplatser :

Abumusa, Iran

latitud: 25-52-33N, longitud: 055-02-01E, höjd: 7 m

Aktuellt väderrapport

Denna rapport gjordes för 54 minuter sedan, klockan 14:00 UTC
Vind 4 kt från väst/nordväst
Temperatur 39°C
Fuktighet 33%
Tryck 998 hPa
Sikt: 4000 m
torrdis

METAR: OIBA 261400Z 30004KT 4000 HZ NSC 39/20 Q0998

Tid: 19:24 (14:54 UTC)


TAF: saknas

Aktuella väderrapporter och prognoser från 4000 flygplatser (METAR- och TAF-rapporter).

De tillgängliga stationerna syns som gula och röda prickar på kartan.

För musen över prickarna för att se namnen på stationerna.

Klicka sedan för att få väderrapporter och prognoser.

För att ändra kartan: Klicka på de gröna knapparna med ett svart kors på för att zooma in; den gröna knappen med ett streck på för att zooma ut; eller på de gröna pilarna för angränsande kartor.


METAR-TAF: